Flight Track Log - Related Links

Times and Time Zones

All times are in EDT time to prevent confusion due to time zone crossing. See the CDG4970 flight status page for this flight to view local times or setup timezone preferences in your user account.

Time Position Orientation Groundspeed Altitude Reporting Facility
EDT Latitude Longitude Course Direction KTS MPH feet Rate Location/Type
Fri 08:40:00 PM 26.8644 118.0356 178° South  Level Estimated
Fri 08:41:00 PM 26.7713 118.0394 178° South  Level Estimated
Fri 08:42:00 PM 26.6782 118.0431 178° South  Level Estimated
Fri 08:43:00 PM 26.6011 118.0462 178° South  Level Estimated
Fri 08:44:00 PM 26.5239 118.0493 178° South  Level Estimated
Fri 08:45:00 PM 26.4467 118.0524 178° South  Level Estimated
Fri 08:46:00 PM 26.3695 118.0555 178° South  Level Estimated
Fri 08:47:00 PM 26.2924 118.0586 178° South  Level Estimated
Fri 08:48:00 PM 26.2152 118.0617 178° South  Level Estimated
Fri 08:48:45 PM 26.0730 117.9930 178° South 410 472 20,700  Level FlightAware ADS-B
Fri 08:49:00 PM 26.1380 118.0648 178° South  Level Estimated
Fri 08:49:17 PM 26.0110 117.9940 179° South 410 472 20,700  Level FlightAware ADS-B
Fri 08:49:52 PM 25.9500 117.9950 179° South 410 472 20,700  Level FlightAware ADS-B
Fri 08:50:31 PM 25.8880 117.9970 178° South 410 472 20,700  Level FlightAware ADS-B
Fri 08:51:08 PM 25.8280 118.0000 177° South 410 472 20,700  Level FlightAware ADS-B
Fri 08:51:46 PM 25.7670 118.0020 178° South 410 472 20,700  Level FlightAware ADS-B
Fri 08:52:22 PM 25.7090 118.0040 178° South 410 472 20,700  Level FlightAware ADS-B
Fri 08:52:56 PM 25.6540 118.0070 177° South 410 472 20,700  Level FlightAware ADS-B
Fri 08:53:32 PM 25.5960 118.0090 178° South 410 472 20,700  Level FlightAware ADS-B
Fri 08:56:00 PM 25.4065 118.0305 174° South  Level Estimated
Fri 08:57:00 PM 25.3297 118.0393 174° South  Level Estimated
Fri 08:58:00 PM 25.2529 118.0480 174° South  Level Estimated
Fri 08:59:00 PM 25.1761 118.0566 174° South  Level Estimated
Fri 09:00:00 PM 25.0992 118.0653 174° South  Level Estimated
Fri 09:01:00 PM 25.0224 118.0740 174° South  Level Estimated
Fri 09:02:00 PM 24.9456 118.0826 174° South  Level Estimated
Fri 09:03:00 PM 24.8687 118.0913 174° South  Level Estimated
Fri 09:04:00 PM 24.7919 118.0999 174° South  Level Estimated
Fri 09:05:00 PM 24.7151 118.1086 174° South  Level Estimated
Fri 09:06:00 PM 24.6383 118.1172 174° South  Level Estimated
Fri 09:07:00 PM 24.5614 118.1258 174° South  Level Estimated
Fri 09:08:00 PM 24.5440 118.1277 174° South  Level Estimated
Fri 09:09:00 PM 24.5440 118.1277 193° South  Level Estimated
Fri 09:10:00 PM 24.5440 118.1277 193° South  Level Estimated
Fri 09:11:00 PM 24.5440 118.1277 193° South  Level Estimated
Fri 09:12:00 PM 24.5440 118.1277 193° South  Level Estimated
Fri 09:13:00 PM 24.5440 118.1277 193° South  Level Estimated
Fri 09:14:00 PM 24.5440 118.1277 193° South  Level Estimated
Fri 09:15:00 PM 24.5440 118.1277 193° South  Level Estimated
Fri 09:16:00 PM 24.5440 118.1277 193° South  Level Estimated
Fri 09:17:00 PM 24.5440 118.1277 193° South  Level Estimated
Fri 09:18:00 PM 24.5440 118.1277 193° South  Level Estimated

Login

Don't have an account? Register now (free) for customized features, flight alerts, and more!